Time;durP1;ratioP1;P1;durP2;ratioP2;P2;SDS_P1;SDS_P2;PMS_P1;PMS_P2;Temp;Humidity;BMP_temperature;BMP_pressure;BME280_temperature;BME280_humidity;BME280_pressure;Samples;Min_cycle;Max_cycle;Signal;HPM_P1;HPM_P2
2023/01/17 10:12:53;;;;;;;14.40;13.40;;;9.30;99.90;;;;;;5085938;27;21201;-82
2023/01/17 10:15:43;;;;;;;13.70;13.00;;;12.70;91.80;;;;;;5085425;28;20434;-82
2023/01/17 10:18:28;;;;;;;14.30;13.60;;;13.50;90.40;;;;;;5085681;28;20499;-84
2023/01/17 10:21:04;;;;;;;15.77;14.87;;;14.30;87.40;;;;;;5085830;28;20486;-84
2023/01/17 10:24:16;;;;;;;14.63;13.70;;;15.20;84.90;;;;;;5085558;28;20454;-84
2023/01/17 10:26:46;;;;;;;13.77;13.07;;;15.50;80.20;;;;;;5046094;28;20518;-83
2023/01/17 10:29:17;;;;;;;13.60;13.10;;;15.00;76.40;;;;;;5085020;28;20534;-84
2023/01/17 10:31:51;;;;;;;13.87;12.90;;;15.00;78.70;;;;;;5085198;28;20482;-84
2023/01/17 10:34:21;;;;;;;12.83;12.23;;;15.40;77.40;;;;;;5085019;28;20442;-84
2023/01/17 10:36:52;;;;;;;13.67;12.90;;;15.60;70.20;;;;;;5084981;28;20457;-84
2023/01/17 10:39:21;;;;;;;12.80;12.30;;;15.50;71.70;;;;;;5084903;28;20841;-84
2023/01/17 10:41:54;;;;;;;12.47;11.90;;;15.50;64.00;;;;;;5085095;28;20446;-82
2023/01/17 10:44:27;;;;;;;12.20;11.70;;;14.40;58.00;;;;;;5085023;28;20482;-83
2023/01/17 10:46:58;;;;;;;11.50;11.10;;;12.70;61.40;;;;;;5085435;28;20929;-82
2023/01/17 10:49:27;;;;;;;11.70;11.00;;;11.80;63.50;;;;;;5085311;28;20450;-82
2023/01/17 10:52:07;;;;;;;10.80;10.40;;;11.20;65.10;;;;;;5084764;28;20548;-83
2023/01/17 10:54:53;;;;;;;11.30;10.90;;;11.20;67.30;;;;;;5085036;28;20508;-84
2023/01/17 10:57:22;;;;;;;11.40;11.00;;;11.70;66.90;;;;;;5084623;28;20528;-83
2023/01/17 10:59:51;;;;;;;10.20;9.60;;;11.00;68.00;;;;;;5084924;28;20504;-82
2023/01/17 11:02:23;;;;;;;10.80;10.40;;;11.00;67.00;;;;;;5084894;28;20447;-83
2023/01/17 11:04:53;;;;;;;11.30;10.73;;;11.20;87.00;;;;;;5084904;28;20498;-82
2023/01/17 11:07:22;;;;;;;11.67;10.97;;;11.00;69.00;;;;;;5084288;28;20451;-83
2023/01/17 11:09:50;;;;;;;11.27;10.83;;;10.90;70.10;;;;;;5084314;28;20450;-83
2023/01/17 11:12:26;;;;;;;10.23;9.93;;;11.00;95.50;;;;;;5078979;28;20763;-82
2023/01/17 11:15:21;;;;;;;10.93;10.50;;;10.90;70.40;;;;;;5071561;28;20450;-84
2023/01/17 11:17:52;;;;;;;12.93;12.27;;;11.40;70.60;;;;;;5071014;28;20597;-82
2023/01/17 11:20:27;;;;;;;10.90;10.53;;;11.10;67.80;;;;;;5071071;28;20533;-83
2023/01/17 11:23:08;;;;;;;10.60;9.90;;;10.90;69.20;;;;;;5071553;28;20454;-84
2023/01/17 11:25:35;;;;;;;10.00;9.60;;;;;;;;;;5070681;28;20451;-82
2023/01/17 11:28:04;;;;;;;11.67;11.27;;;11.20;68.50;;;;;;5070853;28;20447;-82
2023/01/17 11:30:32;;;;;;;10.20;9.80;;;11.30;67.50;;;;;;5070376;28;21043;-81
2023/01/17 11:33:03;;;;;;;11.70;11.10;;;11.20;67.40;;;;;;5070703;28;20939;-81
2023/01/17 11:35:30;;;;;;;10.93;10.50;;;11.00;67.90;;;;;;5070585;28;20804;-82
2023/01/17 11:38:03;;;;;;;10.80;10.40;;;11.20;65.50;;;;;;5070441;28;20442;-81
2023/01/17 11:40:33;;;;;;;12.23;11.73;;;11.80;63.80;;;;;;5070485;28;20447;-82
2023/01/17 11:43:06;;;;;;;11.30;10.90;;;12.30;63.60;;;;;;5070514;28;20455;-80
2023/01/17 11:45:35;;;;;;;10.83;10.43;;;11.90;61.90;;;;;;5070626;28;21075;-82
2023/01/17 11:48:10;;;;;;;11.03;10.63;;;11.40;63.30;;;;;;5070277;28;20466;-82
2023/01/17 11:50:39;;;;;;;10.70;10.00;;;11.70;62.50;;;;;;5070361;28;20877;-81
2023/01/17 11:53:14;;;;;;;10.53;9.97;;;11.30;61.30;;;;;;5070282;28;20458;-81
2023/01/17 11:55:53;;;;;;;10.87;10.40;;;10.40;63.60;;;;;;5070342;28;20443;-80
2023/01/17 11:58:20;;;;;;;10.90;10.40;;;9.90;66.00;;;;;;5070226;28;20455;-81
2023/01/17 12:00:55;;;;;;;10.77;10.47;;;10.10;65.30;;;;;;5070072;28;21035;-81
2023/01/17 12:03:47;;;;;;;11.40;10.70;;;10.60;64.70;;;;;;5070708;28;20450;-82
2023/01/17 12:06:20;;;;;;;11.03;10.50;;;11.00;63.70;;;;;;5069670;28;20471;-81
2023/01/17 12:09:03;;;;;;;11.00;10.10;;;11.50;62.30;;;;;;5069849;28;20778;-82
2023/01/17 12:11:37;;;;;;;10.80;10.40;;;12.10;61.50;;;;;;5069530;28;20837;-81
2023/01/17 12:14:15;;;;;;;10.87;10.37;;;11.70;59.90;;;;;;5069707;28;20457;-82
2023/01/17 12:17:02;;;;;;;11.00;10.50;;;11.50;62.20;;;;;;5070042;28;20451;-80
2023/01/17 12:19:37;;;;;;;10.40;10.00;;;10.90;61.20;;;;;;5069798;28;20450;-80
2023/01/17 12:22:18;;;;;;;10.90;10.50;;;10.50;63.80;;;;;;5069676;28;20541;-81
2023/01/17 12:25:06;;;;;;;10.30;9.90;;;10.30;62.60;;;;;;5069064;28;20447;-81
2023/01/17 12:27:43;;;;;;;11.13;10.40;;;10.50;63.00;;;;;;5069589;28;20454;-81
2023/01/17 12:30:30;;;;;;;10.10;9.80;;;10.60;62.30;;;;;;5069627;28;20462;-79
2023/01/17 12:33:17;;;;;;;10.13;9.53;;;9.90;63.80;;;;;;5069736;28;20493;-81
2023/01/17 12:35:51;;;;;;;11.07;10.57;;;9.50;66.80;;;;;;5069412;28;20451;-79
2023/01/17 12:38:23;;;;;;;10.00;9.70;;;8.90;67.20;;;;;;5069622;28;20538;-79
2023/01/17 12:40:55;;;;;;;10.03;9.50;;;8.70;69.20;;;;;;5069295;28;20489;-78
2023/01/17 12:43:29;;;;;;;9.80;9.40;;;8.50;70.60;;;;;;5069313;28;20451;-80
2023/01/17 12:45:56;;;;;;;9.47;9.07;;;8.20;71.60;;;;;;5069580;28;20455;-80
2023/01/17 12:48:30;;;;;;;9.93;9.63;;;8.00;72.30;;;;;;5069302;28;20790;-80
2023/01/17 12:51:01;;;;;;;10.83;9.73;;;8.00;71.70;;;;;;5069047;28;20447;-80
2023/01/17 12:53:37;;;;;;;10.00;9.40;;;7.90;72.50;;;;;;5069054;28;20455;-80
2023/01/17 12:56:09;;;;;;;9.50;9.10;;;7.90;74.60;;;;;;5069188;28;20460;-81
2023/01/17 12:58:40;;;;;;;9.60;9.30;;;7.70;74.60;;;;;;5068580;28;20459;-80
2023/01/17 13:01:17;;;;;;;9.83;9.30;;;7.60;74.90;;;;;;5068901;28;20931;-80
2023/01/17 13:03:53;;;;;;;9.23;8.83;;;7.40;75.20;;;;;;5068976;28;20451;-79
2023/01/17 13:06:28;;;;;;;9.10;8.80;;;7.40;75.70;;;;;;5068895;28;20486;-80
2023/01/17 13:08:58;;;;;;;9.50;8.90;;;7.30;76.80;;;;;;5069171;28;20446;-80
2023/01/17 13:11:32;;;;;;;9.57;9.17;;;7.30;77.80;;;;;;5068432;28;20515;-79
2023/01/17 13:13:59;;;;;;;9.10;8.80;;;7.40;81.00;;;;;;5068367;28;20461;-79
2023/01/17 13:16:32;;;;;;;9.20;8.87;;;7.50;78.90;;;;;;5068615;28;20455;-79
2023/01/17 13:19:05;;;;;;;9.57;9.17;;;7.40;79.90;;;;;;5068638;28;20458;-81
2023/01/17 13:21:34;;;;;;;9.10;8.70;;;7.50;79.90;;;;;;5068441;28;20443;-82
2023/01/17 13:24:16;;;;;;;9.30;9.00;;;7.60;96.10;;;;;;5068233;28;20551;-80
2023/01/17 13:26:59;;;;;;;9.33;9.03;;;7.40;78.90;;;;;;5068215;28;20482;-81
2023/01/17 13:29:36;;;;;;;9.27;8.97;;;7.20;77.80;;;;;;5068865;28;20469;-82
2023/01/17 13:32:15;;;;;;;8.87;8.57;;;7.30;79.60;;;;;;5067990;28;20928;-81
2023/01/17 13:35:13;;;;;;;8.97;8.67;;;7.00;77.60;;;;;;5068292;28;20447;-81
2023/01/17 13:37:55;;;;;;;9.20;8.80;;;6.80;78.70;;;;;;5069001;28;20458;-80
2023/01/17 13:40:33;;;;;;;9.60;9.10;;;6.70;99.80;;;;;;5068419;28;20448;-80
2023/01/17 13:43:02;;;;;;;9.53;9.13;;;6.70;98.80;;;;;;5067968;28;20451;-81
2023/01/17 13:45:31;;;;;;;9.33;8.83;;;6.70;79.20;;;;;;5068375;28;20447;-80
2023/01/17 13:48:31;;;;;;;9.13;8.80;;;6.50;79.80;;;;;;5067991;28;20683;-80
2023/01/17 13:51:01;;;;;;;8.40;8.00;;;6.50;79.50;;;;;;5063279;28;20462;-81
2023/01/17 13:53:57;;;;;;;9.40;9.00;;;6.60;80.00;;;;;;5068236;28;20435;-81
2023/01/17 13:56:35;;;;;;;8.97;8.57;;;6.50;79.70;;;;;;5068075;28;20508;-81
2023/01/17 13:59:27;;;;;;;8.33;8.13;;;6.40;79.20;;;;;;5068278;28;20696;-80
2023/01/17 14:01:55;;;;;;;8.00;7.70;;;6.50;79.40;;;;;;5063235;28;20558;-79
2023/01/17 14:04:40;;;;;;;9.60;9.27;;;6.50;78.90;;;;;;5068076;28;20459;-80
2023/01/17 14:07:19;;;;;;;9.63;9.17;;;6.50;78.40;;;;;;5067884;28;20476;-80
2023/01/17 14:09:50;;;;;;;9.17;8.87;;;6.40;78.50;;;;;;5068405;28;20989;-80
2023/01/17 14:12:31;;;;;;;9.60;9.20;;;6.30;79.10;;;;;;5067672;28;20494;-80
2023/01/17 14:15:01;;;;;;;8.97;8.60;;;6.30;79.70;;;;;;5068349;28;20456;-80
2023/01/17 14:17:58;;;;;;;9.30;8.90;;;6.30;80.60;;;;;;5068482;28;20451;-80
2023/01/17 14:21:01;;;;;;;9.40;8.97;;;6.40;80.70;;;;;;5068132;28;20508;-81
2023/01/17 14:23:48;;;;;;;9.10;8.70;;;6.40;80.90;;;;;;5065625;28;20473;-81
2023/01/17 14:26:29;;;;;;;9.90;9.60;;;6.30;81.30;;;;;;5068190;28;20451;-80
2023/01/17 14:28:58;;;;;;;10.70;10.30;;;6.30;82.10;;;;;;5068137;28;20451;-81
2023/01/17 14:31:27;;;;;;;9.40;9.10;;;6.40;82.50;;;;;;5068397;28;20444;-80
2023/01/17 14:33:54;;;;;;;9.47;9.07;;;6.40;82.20;;;;;;5068685;28;20451;-81
2023/01/17 14:36:29;;;;;;;10.33;9.93;;;6.30;83.80;;;;;;5067912;28;20446;-80
2023/01/17 14:38:57;;;;;;;9.90;9.50;;;6.10;83.70;;;;;;5068248;28;20450;-80
2023/01/17 14:41:27;;;;;;;9.17;8.77;;;6.30;83.70;;;;;;5068001;28;20982;-80
2023/01/17 14:43:55;;;;;;;8.67;8.33;;;6.20;83.50;;;;;;5068091;28;20439;-80
2023/01/17 14:46:26;;;;;;;9.37;9.03;;;6.20;84.10;;;;;;5068264;28;20818;-81
2023/01/17 14:48:59;;;;;;;10.40;9.70;;;6.20;84.90;;;;;;5071661;28;20863;-79
2023/01/17 14:51:27;;;;;;;9.70;9.20;;;6.20;85.40;;;;;;5072001;28;20962;-80
2023/01/17 14:53:55;;;;;;;10.27;9.77;;;6.00;85.00;;;;;;5072258;28;20988;-80
2023/01/17 14:56:24;;;;;;;12.33;11.17;;;5.90;85.50;;;;;;5071819;28;20447;-81
2023/01/17 14:59:05;;;;;;;11.50;11.00;;;5.90;87.50;;;;;;5071207;28;20525;-79
2023/01/17 15:01:34;;;;;;;10.93;9.90;;;5.90;87.70;;;;;;5071860;28;20877;-80
2023/01/17 15:04:01;;;;;;;11.03;10.33;;;5.80;87.30;;;;;;5072221;28;20459;-80
2023/01/17 15:06:32;;;;;;;11.17;10.57;;;5.80;87.20;;;;;;5072168;28;20467;-79
2023/01/17 15:09:00;;;;;;;10.73;10.20;;;5.80;88.70;;;;;;5072064;28;20556;-80
2023/01/17 15:11:31;;;;;;;11.50;10.73;;;5.70;88.70;;;;;;5071553;28;20475;-80
2023/01/17 15:14:00;;;;;;;10.70;9.90;;;5.70;88.00;;;;;;5075503;28;20455;-79
2023/01/17 15:16:29;;;;;;;10.37;9.87;;;5.60;88.70;;;;;;5078827;28;20454;-79
2023/01/17 15:18:57;;;;;;;11.13;10.50;;;5.60;88.60;;;;;;5080145;28;20447;-79
2023/01/17 15:21:27;;;;;;;10.67;10.10;;;5.50;88.90;;;;;;5080845;28;20442;-80
2023/01/17 15:23:56;;;;;;;11.47;10.47;;;5.50;89.40;;;;;;5080569;28;20985;-78
2023/01/17 15:26:25;;;;;;;11.80;11.00;;;5.40;90.20;;;;;;5080414;28;20998;-80
2023/01/17 15:29:00;;;;;;;13.00;12.10;;;5.40;90.10;;;;;;5079444;28;20454;-80
2023/01/17 15:31:40;;;;;;;11.20;10.60;;;5.30;89.70;;;;;;5071267;28;20477;-80
2023/01/17 15:34:12;;;;;;;11.40;10.70;;;5.30;89.80;;;;;;5071031;28;20474;-79
2023/01/17 15:36:39;;;;;;;12.43;11.27;;;5.30;90.60;;;;;;5070989;28;20508;-79
2023/01/17 15:39:14;;;;;;;13.00;12.10;;;5.20;90.10;;;;;;5070632;28;20451;-79
2023/01/17 15:41:41;;;;;;;12.30;11.57;;;5.20;90.20;;;;;;5070935;28;20952;-79
2023/01/17 15:44:25;;;;;;;13.10;12.20;;;5.20;90.30;;;;;;5071026;28;20443;-79
2023/01/17 15:46:53;;;;;;;11.20;10.40;;;5.10;90.20;;;;;;5070716;28;20451;-79
2023/01/17 15:49:21;;;;;;;12.13;11.40;;;5.10;90.30;;;;;;5070211;28;20462;-79
2023/01/17 15:51:51;;;;;;;13.37;12.47;;;5.00;89.70;;;;;;5070479;28;20550;-80
2023/01/17 15:54:35;;;;;;;10.80;10.20;;;5.10;90.10;;;;;;5070486;28;20678;-80
2023/01/17 15:57:04;;;;;;;12.77;11.57;;;5.00;90.00;;;;;;5068832;28;20466;-80
2023/01/17 15:59:44;;;;;;;12.97;12.10;;;5.00;90.00;;;;;;5069914;28;20542;-79
2023/01/17 16:02:34;;;;;;;10.43;9.87;;;5.00;90.30;;;;;;5070452;28;20443;-80
2023/01/17 16:05:04;;;;;;;10.80;10.10;;;5.00;90.20;;;;;;5070054;28;20689;-80
2023/01/17 16:07:34;;;;;;;11.53;10.80;;;5.00;90.60;;;;;;5069921;28;20454;-80
2023/01/17 16:10:14;;;;;;;12.27;11.17;;;5.00;90.90;;;;;;5070199;28;20450;-81
2023/01/17 16:12:41;;;;;;;11.33;10.63;;;5.00;91.30;;;;;;5070182;28;20494;-80
2023/01/17 16:15:10;;;;;;;12.63;11.63;;;4.90;91.50;;;;;;5070053;28;20509;-81
2023/01/17 16:17:38;;;;;;;11.60;10.47;;;4.90;91.70;;;;;;5070080;28;20447;-81
2023/01/17 16:20:09;;;;;;;11.13;10.23;;;5.00;92.00;;;;;;5069771;28;20451;-81
2023/01/17 16:22:36;;;;;;;11.83;11.20;;;5.00;92.20;;;;;;5069719;28;21309;-80
2023/01/17 16:25:05;;;;;;;12.07;11.10;;;4.90;92.50;;;;;;5069334;28;20825;-81
2023/01/17 16:27:32;;;;;;;12.40;11.50;;;4.90;92.50;;;;;;5069841;28;20565;-80
2023/01/17 16:29:59;;;;;;;13.00;12.10;;;4.90;93.00;;;;;;5069602;28;20462;-80
2023/01/17 16:32:27;;;;;;;11.17;10.33;;;4.90;93.10;;;;;;5069665;28;20529;-81
2023/01/17 16:34:53;;;;;;;11.40;10.50;;;4.90;92.80;;;;;;5069105;28;20443;-80
2023/01/17 16:37:21;;;;;;;11.57;10.57;;;4.90;92.80;;;;;;5069420;28;20454;-80
2023/01/17 16:39:48;;;;;;;11.07;10.10;;;4.90;92.90;;;;;;5069648;28;20455;-80
2023/01/17 16:42:15;;;;;;;10.00;9.17;;;4.90;92.80;;;;;;5068991;28;20451;-80
2023/01/17 16:44:41;;;;;;;10.13;9.40;;;5.00;92.80;;;;;;5069411;28;20459;-80
2023/01/17 16:47:08;;;;;;;10.97;10.20;;;4.90;92.70;;;;;;5069279;28;20927;-81
2023/01/17 16:49:36;;;;;;;11.37;10.47;;;5.00;92.60;;;;;;5069204;28;20451;-80
2023/01/17 16:52:03;;;;;;;11.87;10.80;;;4.90;92.10;;;;;;5069101;28;20455;-81
2023/01/17 16:54:30;;;;;;;10.57;9.73;;;5.00;91.60;;;;;;5069111;28;20969;-81
2023/01/17 16:56:56;;;;;;;11.37;10.50;;;5.00;91.50;;;;;;5069648;28;20847;-79
2023/01/17 16:59:23;;;;;;;11.63;10.83;;;5.00;91.70;;;;;;5068931;28;20470;-79
2023/01/17 17:01:51;;;;;;;10.47;9.77;;;5.00;92.40;;;;;;5068802;28;20903;-79
2023/01/17 17:04:18;;;;;;;11.27;10.67;;;4.90;93.00;;;;;;5069009;28;20620;-80
2023/01/17 17:06:46;;;;;;;9.63;8.93;;;4.90;93.00;;;;;;5068452;28;20536;-80
2023/01/17 17:09:13;;;;;;;10.17;9.63;;;4.90;93.20;;;;;;5068999;28;20447;-80
2023/01/17 17:11:41;;;;;;;10.07;9.37;;;4.90;93.30;;;;;;5067899;28;20490;-79
2023/01/17 17:14:08;;;;;;;10.53;9.83;;;4.80;93.90;;;;;;5068626;28;20514;-80
2023/01/17 17:16:35;;;;;;;12.00;10.97;;;4.90;94.10;;;;;;5068481;28;20809;-80
2023/01/17 17:19:05;;;;;;;11.97;11.07;;;4.70;96.40;;;;;;5068219;28;21114;-80
2023/01/17 17:21:32;;;;;;;11.23;10.40;;;4.60;97.90;;;;;;5068394;28;20946;-80
2023/01/17 17:24:01;;;;;;;10.87;10.10;;;4.60;99.00;;;;;;5068379;28;20826;-80
2023/01/17 17:26:32;;;;;;;11.57;10.53;;;4.60;99.50;;;;;;5068513;28;20455;-80
2023/01/17 17:28:59;;;;;;;11.00;10.17;;;4.50;99.90;;;;;;5068177;28;20466;-80
2023/01/17 17:31:26;;;;;;;9.97;9.37;;;4.40;99.90;;;;;;5068725;28;20818;-81
2023/01/17 17:33:57;;;;;;;14.77;11.80;;;4.30;99.90;;;;;;5068620;28;20482;-80
2023/01/17 17:36:23;;;;;;;12.23;11.27;;;4.20;99.90;;;;;;5068573;28;20946;-81
2023/01/17 17:38:54;;;;;;;13.87;12.83;;;4.00;99.90;;;;;;5068239;28;20819;-78
2023/01/17 17:41:23;;;;;;;13.27;12.10;;;3.80;99.90;;;;;;5068134;28;20451;-78
2023/01/17 17:43:51;;;;;;;14.30;13.40;;;3.70;99.90;;;;;;5068235;28;20496;-77
2023/01/17 17:46:19;;;;;;;17.00;15.90;;;3.50;99.90;;;;;;5068573;28;20980;-76
2023/01/17 17:48:46;;;;;;;19.60;18.60;;;3.30;99.90;;;;;;5067985;28;20462;-75
2023/01/17 17:51:24;;;;;;;21.33;20.33;;;3.20;99.90;;;;;;5068040;28;20455;-76
2023/01/17 17:53:53;;;;;;;25.93;24.33;;;3.00;99.90;;;;;;5068153;28;20482;-75
2023/01/17 17:56:22;;;;;;;25.70;24.10;;;3.00;99.90;;;;;;5068526;28;20558;-75
2023/01/17 17:58:49;;;;;;;28.47;26.83;;;3.00;99.90;;;;;;5068346;28;20455;-73
